VATSIM Germany Forum

Zurück   VATSIM Germany Forum > Community > Events

Events Ankündigungen von Events, Checkouts, TV-Terminen, usw.

Antwort
 
LinkBack Themen-Optionen Ansicht
Alt 2017-10-30, 13:16   #191 (permalink)
 
Benutzerbild von Dietmar Brinschwitz
 
Registriert seit: 2005-09-03
Ort: Ansbach
Alter: 56
Beiträge: 1.475
Danke erteilt: 3.618
2.032 Danksagungen in 789 Beiträgen erhalten
Standard

Auch heute bieten wir Untertützung zum CPT in Düsseldorf an und was bietet sich mehr an, als unseren weiblichen APP Trainee auch mit Traffic zu versorgen, um zu sehen wie sie das mit mehr hinbekommt.

Der erste Herststurm hat sich gelegt, wir sind alle gut in der Winterzeit angekommen und Ihr könnt dazu gerne von EDDN auf die Rennstrecke EDDN-EDDL und zurück. Also scheut euch nicht hier in der Lebkuchenstadt den Apron zu füllen.

Wetter:
Zitat:
EDDN 301050Z 29013KT 270V330 9999 SCT025 SCT066 09/03 Q1023 NOSIG

TAF EDDN 300500Z 3006/3106 30010KT 9999 SCT020
TEMPO 3006/3008 BKN012
BECMG 3016/3018 28003KT
__________________
Gruß Dietmar
BER721/DBGUN (F 100/70 - ATR 72/42 - Citation X)
DEGUN/DIDDI (Robin 400 - C 182 - PA 28 - PA31)
Dietmar Brinschwitz ist offline   Mit Zitat antworten
Alt 2017-11-06, 19:56   #192 (permalink)
VATSIM Germany RG München Chief
 
Registriert seit: 2009-09-10
Ort: EDDM
Alter: 42
Beiträge: 1.904
Danke erteilt: 3.976
1.662 Danksagungen in 863 Beiträgen erhalten
Standard

Auch heute ist Nürnberg wieder Online.
In 35 Minuten geht es zu unserer neuen Öffnungszeit von 19:30 - 22:30 Uhr lcl los.

Mit Düsseldorf hat man die gewohnte Rennstrecke.

Die Wetteraussichten für heute
Zitat:
DDN 061700Z 0618/0718 36005KT 9999 OVC025 PROB30 TEMPO 0702/0707 BKN012 BECMG 0707/0709 06007KT
__________________
Chief RG-München
Christian Speth ist gerade online   Mit Zitat antworten
Alt 2017-11-13, 15:35   #193 (permalink)
 
Benutzerbild von Dietmar Brinschwitz
 
Registriert seit: 2005-09-03
Ort: Ansbach
Alter: 56
Beiträge: 1.475
Danke erteilt: 3.618
2.032 Danksagungen in 789 Beiträgen erhalten
Standard

Wechselhaftes windiges Wetter mit ein paar Schneeflocken erwartet Euch heute am Albrecht-Dürer-Airport.

Es bietet sich heute wieder ein Hüpfer nach EDDL zum CPT oder zurück an, damit unsre Approacherin auch kräftig zu tun bekommt.

Zitat:
EDDN 131320Z 32014KT 9999 SCT015 05/02 Q1014 NOSIG

TAF EDDN 131100Z 1312/1412 31005KT 9999 SCT012 BKN040
BECMG 1400/1402 VRB03KT
TEMPO 1400/1405 1200 BCFG
TEMPO 1405/1410 BKN010
BECMG 1410/1412 27006KT
__________________
Gruß Dietmar
BER721/DBGUN (F 100/70 - ATR 72/42 - Citation X)
DEGUN/DIDDI (Robin 400 - C 182 - PA 28 - PA31)
Dietmar Brinschwitz ist offline   Mit Zitat antworten
Alt 2017-11-20, 19:27   #194 (permalink)
 
Benutzerbild von Dietmar Brinschwitz
 
Registriert seit: 2005-09-03
Ort: Ansbach
Alter: 56
Beiträge: 1.475
Danke erteilt: 3.618
2.032 Danksagungen in 789 Beiträgen erhalten
Standard

Und auf gehts in den nächsten Nürnberg Monday.

Unsere Trainees am Albrecht-Dürer-Airport wollen sich heute weiterbilden und benötigen in und um Nürnberg herum fliegende Kunden, die mit ihnen sprechen wollen

Am Wetter solls zur Onlinezeit nicht liegen, könnte aber interessant werden:
Zitat:
EDDN 201720Z 18008KT 9999 -RA FEW008 SCT013 BKN023 02/01 Q1017 TEMPO BKN012

TAF EDDN 201700Z 2018/2118 20006KT 9999 SCT013 BKN025
BECMG 2018/2020 SCT008 BKN012
BECMG 2020/2022 BKN008
PROB40
TEMPO 2020/2102 RADZ
BECMG 2023/2102 25012KT
BECMG 2103/2106 25015G25KT BKN011
PROB30
TEMPO 2110/2115 RADZ BKN009
BECMG 2113/2115 25007KT BKN015
Als los, auftanken und einen oder mehrere Flüge von und nach EDDN
__________________
Gruß Dietmar
BER721/DBGUN (F 100/70 - ATR 72/42 - Citation X)
DEGUN/DIDDI (Robin 400 - C 182 - PA 28 - PA31)
Dietmar Brinschwitz ist offline   Mit Zitat antworten
Alt 2017-11-27, 14:52   #195 (permalink)
 
Benutzerbild von Dietmar Brinschwitz
 
Registriert seit: 2005-09-03
Ort: Ansbach
Alter: 56
Beiträge: 1.475
Danke erteilt: 3.618
2.032 Danksagungen in 789 Beiträgen erhalten
Standard

Heute bietet sich die letzte Gelegenheit An- und Abflüge für das kommende Christkindlmarkt Flyin am Samstag zu trainieren.

Wir sind mit gewohnter guter Laune für euch auf der Welle - Glühwein und Lebkuchen sind bereitgestellt

Wettertechnisch zwar noch nicht ganz frostig, aber schon gefühlt vorwinterlich:
Zitat:
EDDN 271220Z 21013KT 9999 BKN025 04/M00 Q1021 TEMPO 27015G25KT

TAF EDDN 271100Z 2712/2812 22012KT 9999 BKN025
TEMPO 2712/2721 26015G25KT
TEMPO 2718/2812 4000 RA BKN009
__________________
Gruß Dietmar
BER721/DBGUN (F 100/70 - ATR 72/42 - Citation X)
DEGUN/DIDDI (Robin 400 - C 182 - PA 28 - PA31)
Dietmar Brinschwitz ist offline   Mit Zitat antworten
Alt 2017-12-04, 20:54   #196 (permalink)
 
Benutzerbild von Heinz Andersen
 
Registriert seit: 2009-12-25
Ort: 2.55 nm NE of DESIM
Alter: 57
Beiträge: 233
Danke erteilt: 801
488 Danksagungen in 162 Beiträgen erhalten
Standard

Nach einem erfolgreichen Fly-In zum Christkindlesmarkt am vergangenen Samstag
freuen sich die Franken auch heute wieder über weitere Gäste!

Nutzt die Gelegenheit am heutigen Nürnberg Montag für An- und Abreise und bringt
den Controllern auch wieder ein bisschen Beschäftigung.

Wir freuen uns auf euch bei zu erwartendem Schmuddelwetter:

Code:
TAF: EDDN 041700Z 0418/0518 27010KT 9999 BKN006 PROB40 TEMPO 0421/0504 3000 -RASN BR BKN004 BECMG 0510/0512 BKN012 TEMPO 0512/0518 SCT012 BKN020
PS: Und Glühwein ist noch reichlich da...
__________________
Viele Grüße / best regards
Heinz
Event-/NAV-/Mentorenteam RG München


Geändert von Heinz Andersen (2017-12-04 um 20:57 Uhr)
Heinz Andersen ist offline   Mit Zitat antworten
Danksagungen
Alt 2017-12-18, 19:44   #197 (permalink)
 
Benutzerbild von Dietmar Brinschwitz
 
Registriert seit: 2005-09-03
Ort: Ansbach
Alter: 56
Beiträge: 1.475
Danke erteilt: 3.618
2.032 Danksagungen in 789 Beiträgen erhalten
Standard

Heute ist noch mal die letzte Möglichkeit, dem Christkindlmarkt in Nürnberg einen Besuch abzustatten.

Unser neuer S3 möchte heute seinen Horizont erweitern und sitzt mal auf dem EDDN_APP. Daher wird dringend jede Menge an Traffic benötigt

Also nehmt die Lebkuchen mit von/nach EDDN oder macht den Glühweinshuttle nach EDDL und zurück

Wettertechnisch schauts nach Glühwein- und Simulatorwetter aus:
Zitat:
EDDN 181720Z 10004KT 9999 FEW026 M00/M03 Q1026 NOSIG

TAF EDDN 181700Z 1818/1918 11005KT 9999 BKN025
BECMG 1908/1910 27005KT
TEMPO 1916/1918 3500 -SN BKN012
Bis gleich auf der Welle
__________________
Gruß Dietmar
BER721/DBGUN (F 100/70 - ATR 72/42 - Citation X)
DEGUN/DIDDI (Robin 400 - C 182 - PA 28 - PA31)

Geändert von Christian Speth (2017-12-18 um 20:19 Uhr)
Dietmar Brinschwitz ist offline   Mit Zitat antworten
Alt 2018-01-01, 18:14   #198 (permalink)
 
Benutzerbild von Dietmar Brinschwitz
 
Registriert seit: 2005-09-03
Ort: Ansbach
Alter: 56
Beiträge: 1.475
Danke erteilt: 3.618
2.032 Danksagungen in 789 Beiträgen erhalten
Standard

Neues Jahr neues Glück!

Willkommen zum 1. (in Worten: "ersten") Nürnberg Monday 2018

Die Besetzung steht und wir würden uns auf viel Traffic im neuen Jahr freuen.
Vielleicht verirrt sich ja der eine oder andere Shuttleteilnehmer und macht ein Tringel daraus

Wir bieten wie immer Anflüge a la carte

Wetter:
Zitat:
EDDN 011550Z 14006KT 9999 FEW045 SCT250 04/M01 Q1005 NOSIG

TAF EDDN 011100Z 0112/0212 25015G25KT 9999 SCT035
BECMG 0114/0116 14006KT
BECMG 0120/0122 20015G30KT
TEMPO 0120/0206 27020G40KT RA
BECMG 0206/0208 26012KT
TEMPO 0206/0212 28015G30KT SHRA SCT020TCU
__________________
Gruß Dietmar
BER721/DBGUN (F 100/70 - ATR 72/42 - Citation X)
DEGUN/DIDDI (Robin 400 - C 182 - PA 28 - PA31)
Dietmar Brinschwitz ist offline   Mit Zitat antworten
Alt 2018-01-08, 13:25   #199 (permalink)
 
Benutzerbild von Steffen Butenschön
 
Registriert seit: 2013-01-03
Ort: bei Berlin
Beiträge: 56
Danke erteilt: 165
61 Danksagungen in 26 Beiträgen erhalten
Standard

Wir hoffen Ihr hattet ein schönes Wochenende!
Da wir nun alle wieder frisch und ein wenig unterflogen sind - ab in die Flieger

Die Nürnberg Montag Crew freut sich auf Euch!

Wetter:
2018/01/08 06:27
TAF EDDN 080500Z 0806/0906 09008KT 9999 OVC012
TEMPO 0809/0816 SCT015

So bietet sich wohl die Gelegenheit mal wieder die 10 anzufliegen. VFR oder IFR - alle sind herzlich willkommen.
Destinationen sind heute für die IFR Fraktion : Düsseldorf (viel Erfolg Patrick beim CPT) und Milano. Und EDDL-EDDN-LIMC sind ja gerade mal 450NM
VFR´ler genießen den Ausblick auf die Stadt und Umgebung, perfektionieren Ihre Platzrunden, machen einen ILS Übungsanflug ...
Bis später auf der Frequenz !
Angehängte Grafiken
Dateityp: jpg Nürnberg City.JPG (213,4 KB, 25x aufgerufen)
Steffen Butenschön ist offline   Mit Zitat antworten
Alt Gestern, 17:44   #200 (permalink)
 
Benutzerbild von Dietmar Brinschwitz
 
Registriert seit: 2005-09-03
Ort: Ansbach
Alter: 56
Beiträge: 1.475
Danke erteilt: 3.618
2.032 Danksagungen in 789 Beiträgen erhalten
Standard

Heute einmalige "Oldie" but "Goodie" Besetzung

3 Positionen bislang gebucht - 176 Jahre oder vielleicht - 4 Pos. 206 Jahre mit Verjüngung

Und das Wetter lässt noch am frühen Abend in Nürnberg hoffen. bevor stürmische Böen hereinfallen:
Zitat:
EDDN 151520Z 13012KT 9999 BKN047 BKN100 02/M02 Q1011 NOSIG

TAF EDDN 151100Z 1512/1612 14010KT 9999 FEW014
BECMG 1520/1522 23010KT
TEMPO 1520/1609 23015G25KT RASN
BECMG 1609/1611 25015G25KT
TEMPO 1609/1612 25020G35KT 2500 SHGS BKN020CB
Also ihr Piloten/-innen lasst euch nicht lumpen und füllt den Nürnberger Apron
__________________
Gruß Dietmar
BER721/DBGUN (F 100/70 - ATR 72/42 - Citation X)
DEGUN/DIDDI (Robin 400 - C 182 - PA 28 - PA31)
Dietmar Brinschwitz ist offline   Mit Zitat antworten
Antwort

  VATSIM Germany Forum > Community > Events


Themen-Optionen
Ansicht

Forumregeln
Es ist dir nicht erlaubt, neue Themen zu verfassen.
Es ist dir nicht erlaubt, auf Beiträge zu antworten.
Es ist dir nicht erlaubt, Anhänge hochzuladen.
Es ist dir nicht erlaubt, deine Beiträge zu bearbeiten.

BB-Code ist an.
Smileys sind an.
[IMG] Code ist an.
HTML-Code ist aus.
Trackbacks are an
Pingbacks are an
Refbacks are an



Alle Zeitangaben in WEZ +2. Es ist jetzt 09:29 Uhr.


Powered by vBulletin® Version 3.8.4 (Deutsch)
Copyright ©2000 - 2018, Jelsoft Enterprises Ltd.
Template-Modifikationen durch TMS
© 2006 - 2012 vatsim-germany.org